Time;durP1;ratioP1;P1;durP2;ratioP2;P2;SDS_P1;SDS_P2;PMS_P1;PMS_P2;Temp;Humidity;BMP_temperature;BMP_pressure;BME280_temperature;BME280_humidity;BME280_pressure;Samples;Min_cycle;Max_cycle;Signal;HPM_P1;HPM_P2
2023/08/20 00:00:18;;;;;;;;;;;23.60;62.20;;;;;;5007363;28;20042;-49
2023/08/20 00:02:46;;;;;;;4.70;4.15;;;23.60;61.70;;;;;;5010696;28;19953;-50
2023/08/20 00:05:16;;;;;;;6.65;3.78;;;23.50;61.80;;;;;;5006829;28;20046;-48
2023/08/20 00:07:44;;;;;;;5.00;4.43;;;23.40;61.80;;;;;;5008580;28;20042;-52
2023/08/20 00:10:13;;;;;;;5.90;4.10;;;23.40;62.00;;;;;;5010955;28;20403;-51
2023/08/20 00:12:40;;;;;;;5.45;4.65;;;23.40;62.20;;;;;;5007625;28;20121;-54
2023/08/20 00:15:15;;;;;;;5.25;4.75;;;23.40;62.60;;;;;;5010300;28;20060;-52
2023/08/20 00:17:44;;;;;;;4.10;3.63;;;23.40;62.80;;;;;;5011783;28;20117;-50
2023/08/20 00:20:16;;;;;;;6.18;4.60;;;23.30;62.80;;;;;;5010074;28;20046;-52
2023/08/20 00:22:46;;;;;;;4.32;4.03;;;23.30;62.80;;;;;;5009097;28;20540;-53
2023/08/20 00:25:17;;;;;;;5.50;3.97;;;23.30;62.60;;;;;;5006411;28;20129;-53
2023/08/20 00:27:44;;;;;;;5.25;4.03;;;23.30;62.50;;;;;;5010764;28;20053;-52
2023/08/20 00:30:11;;;;;;;4.32;3.92;;;23.30;62.70;;;;;;5006660;28;20119;-49
2023/08/20 00:32:38;;;;;;;5.13;4.00;;;23.20;62.70;;;;;;4993099;28;20038;-54
2023/08/20 00:35:07;;;;;;;6.70;4.10;;;23.20;62.60;;;;;;5010054;28;20038;-52
2023/08/20 00:37:35;;;;;;;4.85;4.45;;;23.20;62.70;;;;;;4991240;28;20540;-50
2023/08/20 00:40:07;;;;;;;5.57;3.80;;;23.20;63.20;;;;;;5010122;28;20058;-50
2023/08/20 00:42:34;;;;;;;5.43;4.25;;;23.10;62.60;;;;;;5007824;28;20053;-53
2023/08/20 00:45:02;;;;;;;4.07;3.78;;;23.10;63.10;;;;;;5007979;28;20145;-52
2023/08/20 00:47:31;;;;;;;4.35;3.95;;;23.00;62.80;;;;;;5009018;28;20052;-51
2023/08/20 00:49:59;;;;;;;6.55;5.60;;;23.00;63.20;;;;;;4992171;28;20096;-53
2023/08/20 00:52:28;;;;;;;7.45;5.80;;;23.00;63.60;;;;;;5009893;28;20568;-53
2023/08/20 00:54:58;;;;;;;7.63;5.18;;;23.00;63.70;;;;;;4990505;28;20072;-51
2023/08/20 00:57:28;;;;;;;7.10;5.18;;;22.90;63.90;;;;;;5010769;28;20042;-53
2023/08/20 00:59:56;;;;;;;7.30;4.65;;;22.90;63.90;;;;;;5006919;28;20054;-50
2023/08/20 01:02:23;;;;;;;6.57;4.95;;;22.90;64.00;;;;;;5006120;28;20082;-53
2023/08/20 01:04:53;;;;;;;5.10;4.60;;;22.90;64.10;;;;;;5007532;28;20456;-51
2023/08/20 01:07:44;;;;;;;5.13;4.53;;;22.90;64.60;;;;;;5003865;28;20053;-50
2023/08/20 01:10:27;;;;;;;6.18;5.20;;;22.90;65.30;;;;;;4991530;28;20046;-51
2023/08/20 01:12:56;;;;;;;9.02;5.75;;;22.90;65.40;;;;;;4987436;28;21002;-53
2023/08/20 01:15:26;;;;;;;6.25;5.72;;;22.90;65.40;;;;;;5009284;28;20037;-53
2023/08/20 01:17:55;;;;;;;6.88;6.15;;;23.00;65.50;;;;;;5008003;28;20523;-52
2023/08/20 01:20:31;;;;;;;8.52;6.47;;;23.00;65.40;;;;;;4985525;28;20332;-49
2023/08/20 01:23:17;;;;;;;6.78;6.18;;;23.00;65.90;;;;;;4992077;28;20042;-51
2023/08/20 01:26:08;;;;;;;8.02;6.63;;;23.00;65.90;;;;;;5007752;28;20046;-50
2023/08/20 01:28:39;;;;;;;7.82;6.05;;;23.10;66.20;;;;;;5005041;28;20576;-53
2023/08/20 01:31:08;;;;;;;7.43;6.80;;;23.20;66.40;;;;;;5007909;28;20044;-50
2023/08/20 01:33:36;;;;;;;7.82;6.75;;;23.10;65.70;;;;;;4991014;28;20092;-53
2023/08/20 01:36:11;;;;;;;9.45;7.68;;;23.10;65.60;;;;;;4992123;28;20046;-53
2023/08/20 01:38:43;;;;;;;8.00;6.82;;;23.20;66.00;;;;;;4990562;28;20042;-51
2023/08/20 01:41:13;;;;;;;8.82;6.85;;;23.20;65.40;;;;;;5007444;28;20042;-52
2023/08/20 01:43:42;;;;;;;7.57;6.30;;;23.20;65.40;;;;;;5008873;28;20052;-53
2023/08/20 01:46:18;;;;;;;13.95;7.07;;;23.20;65.40;;;;;;5007861;28;20392;-53
2023/08/20 01:48:45;;;;;;;8.05;6.57;;;23.20;65.50;;;;;;4991340;28;20274;-54
2023/08/20 01:51:15;;;;;;;8.43;6.65;;;23.20;65.70;;;;;;5008242;28;20436;-51
2023/08/20 01:53:48;;;;;;;8.30;6.07;;;23.30;65.70;;;;;;4988402;28;20111;-51
2023/08/20 01:56:16;;;;;;;7.97;6.63;;;23.30;65.60;;;;;;5008610;28;20100;-54
2023/08/20 01:58:42;;;;;;;8.32;7.20;;;23.30;65.60;;;;;;4989279;28;20045;-52
2023/08/20 02:01:11;;;;;;;8.00;7.15;;;23.30;65.70;;;;;;5008056;28;20064;-49
2023/08/20 02:03:40;;;;;;;10.88;7.53;;;23.30;65.90;;;;;;5009603;28;20474;-53
2023/08/20 02:06:15;;;;;;;8.45;7.63;;;23.30;66.00;;;;;;5007393;28;20034;-53
2023/08/20 02:08:48;;;;;;;8.45;7.60;;;23.30;66.10;;;;;;5004875;28;20416;-51
2023/08/20 02:11:14;;;;;;;13.02;9.57;;;23.30;66.50;;;;;;4984860;28;20062;-52
2023/08/20 02:13:44;;;;;;;15.52;11.82;;;23.30;66.30;;;;;;5005322;28;20121;-52
2023/08/20 02:16:11;;;;;;;18.88;14.73;;;23.30;66.30;;;;;;5006967;28;20364;-51
2023/08/20 02:18:38;;;;;;;19.35;15.15;;;23.30;66.30;;;;;;5004916;28;20050;-51
2023/08/20 02:21:12;;;;;;;15.30;12.95;;;23.30;66.30;;;;;;4989068;28;20038;-50
2023/08/20 02:23:40;;;;;;;13.25;11.75;;;23.30;66.20;;;;;;5008641;28;20123;-51
2023/08/20 02:26:07;;;;;;;14.77;13.05;;;23.30;65.70;;;;;;5009492;28;20037;-50
2023/08/20 02:28:37;;;;;;;12.93;11.55;;;23.30;65.50;;;;;;5007741;28;20084;-50
2023/08/20 02:31:06;;;;;;;12.85;11.52;;;23.20;65.30;;;;;;4988721;28;20158;-50
2023/08/20 02:33:33;;;;;;;13.55;12.10;;;23.20;65.10;;;;;;5005229;28;20070;-53
2023/08/20 02:36:03;;;;;;;13.60;12.20;;;23.10;64.90;;;;;;5008986;28;20041;-52
2023/08/20 02:38:31;;;;;;;16.35;12.25;;;23.10;64.90;;;;;;4986988;28;20034;-50
2023/08/20 02:41:02;;;;;;;13.90;12.50;;;23.10;64.80;;;;;;4991252;28;20050;-52
2023/08/20 02:43:30;;;;;;;13.98;12.40;;;23.00;64.90;;;;;;5008044;28;20420;-53
2023/08/20 02:46:00;;;;;;;14.80;12.25;;;23.00;65.00;;;;;;4989744;28;20411;-49
2023/08/20 02:48:28;;;;;;;13.95;12.50;;;23.00;65.00;;;;;;5008731;28;20455;-52
2023/08/20 02:50:57;;;;;;;15.48;12.77;;;22.90;65.10;;;;;;5008974;28;20125;-53
2023/08/20 02:53:23;;;;;;;14.27;12.27;;;22.90;65.70;;;;;;5010225;28;20052;-50
2023/08/20 02:55:54;;;;;;;12.55;10.88;;;22.90;66.10;;;;;;5012048;28;20042;-52
2023/08/20 02:58:20;;;;;;;13.32;11.15;;;22.90;65.90;;;;;;4994001;28;20073;-53
2023/08/20 03:00:53;;;;;;;11.80;10.67;;;22.80;65.90;;;;;;5008428;28;20160;-53
2023/08/20 03:03:25;;;;;;;12.10;10.27;;;22.80;65.80;;;;;;4994045;28;20313;-52
2023/08/20 03:05:52;;;;;;;10.87;9.40;;;22.80;66.00;;;;;;5006193;28;20053;-50
2023/08/20 03:08:21;;;;;;;11.55;9.75;;;22.80;65.90;;;;;;5009190;28;20347;-53
2023/08/20 03:10:48;;;;;;;11.02;9.25;;;22.80;65.90;;;;;;5012640;28;20383;-52
2023/08/20 03:13:15;;;;;;;11.90;10.00;;;22.80;66.10;;;;;;5004135;28;20641;-50
2023/08/20 03:15:42;;;;;;;10.77;8.68;;;22.80;66.20;;;;;;5010314;28;20523;-50
2023/08/20 03:18:09;;;;;;;11.43;9.98;;;22.80;66.20;;;;;;5012233;28;20112;-51
2023/08/20 03:20:37;;;;;;;12.05;8.43;;;22.80;66.60;;;;;;5009641;28;20048;-52
2023/08/20 03:23:04;;;;;;;9.55;8.52;;;22.80;66.60;;;;;;5031784;23;20046;-52
2023/08/20 03:25:33;;;;;;;10.90;8.55;;;22.70;66.40;;;;;;4991737;28;20041;-52
2023/08/20 03:27:59;;;;;;;12.23;8.93;;;22.70;66.50;;;;;;4994296;28;20046;-52
2023/08/20 03:30:27;;;;;;;12.57;9.27;;;22.70;66.70;;;;;;5007356;28;20065;-54
2023/08/20 03:32:56;;;;;;;9.85;8.85;;;22.70;66.80;;;;;;4994114;28;20125;-52
2023/08/20 03:35:24;;;;;;;10.32;8.63;;;22.70;66.70;;;;;;4993014;28;20077;-50
2023/08/20 03:37:53;;;;;;;10.10;9.10;;;22.70;66.70;;;;;;5008946;28;20566;-51
2023/08/20 03:40:21;;;;;;;10.20;7.90;;;22.70;66.60;;;;;;5008951;28;20088;-50
2023/08/20 03:42:51;;;;;;;9.77;8.52;;;22.60;66.20;;;;;;5010174;28;20064;-50
2023/08/20 03:45:17;;;;;;;10.13;9.02;;;22.60;66.00;;;;;;4992920;28;20123;-48
2023/08/20 03:47:50;;;;;;;9.90;8.98;;;22.60;66.10;;;;;;5009897;28;20050;-51
2023/08/20 03:50:21;;;;;;;8.68;7.43;;;22.50;66.10;;;;;;4993009;28;20077;-52
2023/08/20 03:52:48;;;;;;;8.70;7.72;;;22.50;66.00;;;;;;5011422;28;20033;-47
2023/08/20 03:55:17;;;;;;;6.80;6.20;;;22.50;65.70;;;;;;5010124;28;20046;-50
2023/08/20 03:57:43;;;;;;;8.13;7.32;;;22.40;65.50;;;;;;5010319;28;20506;-52
2023/08/20 04:00:12;;;;;;;10.50;7.47;;;22.40;65.50;;;;;;5010133;28;20506;-51
2023/08/20 04:02:41;;;;;;;7.35;6.60;;;22.30;65.50;;;;;;5010277;28;20050;-51
2023/08/20 04:05:13;;;;;;;8.82;6.97;;;22.30;65.40;;;;;;4995308;28;20038;-51
2023/08/20 04:07:39;;;;;;;8.40;7.53;;;22.20;65.70;;;;;;5010221;28;20042;-53
2023/08/20 04:10:09;;;;;;;9.90;7.65;;;22.20;65.50;;;;;;4995904;28;20034;-52
2023/08/20 04:12:36;;;;;;;9.15;7.43;;;22.20;65.80;;;;;;5007590;28;20050;-51
2023/08/20 04:15:10;;;;;;;9.85;7.03;;;22.10;65.90;;;;;;5005653;28;20042;-51
2023/08/20 04:17:42;;;;;;;8.38;7.10;;;22.10;65.70;;;;;;4993471;28;20041;-51
2023/08/20 04:20:13;;;;;;;8.40;7.18;;;22.10;65.70;;;;;;4992956;28;20046;-51
2023/08/20 04:22:40;;;;;;;9.35;7.05;;;22.00;65.70;;;;;;4993011;28;20120;-52
2023/08/20 04:25:10;;;;;;;8.10;7.38;;;22.00;65.70;;;;;;4991818;28;20409;-50
2023/08/20 04:27:38;;;;;;;8.30;7.53;;;22.00;65.80;;;;;;4993523;28;20056;-51
2023/08/20 04:30:06;;;;;;;10.40;8.30;;;21.90;66.10;;;;;;4993122;28;20041;-50
2023/08/20 04:32:35;;;;;;;8.52;7.72;;;21.90;66.50;;;;;;4993098;28;20114;-51
2023/08/20 04:35:02;;;;;;;8.70;6.88;;;21.90;66.60;;;;;;4992959;28;20042;-51
2023/08/20 04:37:32;;;;;;;8.63;7.00;;;21.90;66.50;;;;;;4993555;28;20057;-52
2023/08/20 04:40:00;;;;;;;8.05;7.25;;;21.90;66.40;;;;;;4987143;28;20092;-49
2023/08/20 04:42:30;;;;;;;8.05;7.03;;;21.80;66.10;;;;;;4993044;28;20096;-51
2023/08/20 04:45:02;;;;;;;7.05;6.40;;;21.80;66.10;;;;;;4992938;28;20119;-48
2023/08/20 04:47:29;;;;;;;7.97;6.72;;;21.80;66.00;;;;;;4992594;28;20149;-52
2023/08/20 04:49:58;;;;;;;8.05;7.13;;;21.80;66.00;;;;;;4993009;28;20096;-53
2023/08/20 04:52:26;;;;;;;9.52;7.43;;;21.80;66.00;;;;;;4992066;28;20587;-51
2023/08/20 04:54:53;;;;;;;9.50;7.00;;;21.80;66.20;;;;;;5007950;28;20042;-51
2023/08/20 04:57:26;;;;;;;7.70;6.38;;;21.70;66.10;;;;;;4987446;28;20042;-52
2023/08/20 04:59:55;;;;;;;7.70;6.40;;;21.70;66.30;;;;;;4999197;28;20571;-52
2023/08/20 05:02:31;;;;;;;7.82;7.03;;;21.70;66.30;;;;;;5003196;28;20049;-52
2023/08/20 05:05:04;;;;;;;10.35;6.53;;;21.70;66.50;;;;;;4992656;28;20050;-51
2023/08/20 05:07:32;;;;;;;8.82;6.68;;;21.70;66.50;;;;;;4993103;28;20046;-53
2023/08/20 05:10:03;;;;;;;7.90;7.10;;;21.70;66.50;;;;;;4988804;28;20052;-46
2023/08/20 05:12:30;;;;;;;8.70;7.78;;;21.70;66.70;;;;;;5006704;28;20073;-50
2023/08/20 05:14:57;;;;;;;8.07;7.28;;;21.70;67.10;;;;;;5009972;28;20400;-51
2023/08/20 05:17:28;;;;;;;6.65;6.05;;;21.70;67.10;;;;;;4992720;28;20500;-51
2023/08/20 05:19:59;;;;;;;7.03;6.40;;;21.70;67.10;;;;;;4992097;28;20061;-52
2023/08/20 05:22:28;;;;;;;6.30;5.70;;;21.70;67.20;;;;;;4992570;28;20530;-51
2023/08/20 05:25:00;;;;;;;6.63;6.03;;;21.70;67.10;;;;;;5009905;28;20042;-50
2023/08/20 05:27:36;;;;;;;6.97;6.38;;;21.80;67.20;;;;;;4991410;28;20061;-51
2023/08/20 05:30:05;;;;;;;8.60;6.55;;;21.80;67.70;;;;;;4991183;28;20141;-52
2023/08/20 05:32:31;;;;;;;7.18;6.57;;;21.80;67.60;;;;;;5009972;28;20104;-51
2023/08/20 05:35:01;;;;;;;7.10;5.57;;;21.80;67.70;;;;;;5009550;28;20046;-51
2023/08/20 05:37:30;;;;;;;8.23;6.80;;;21.80;67.70;;;;;;4992071;28;20136;-49
2023/08/20 05:40:04;;;;;;;7.22;6.53;;;21.90;68.10;;;;;;4990892;28;20042;-51
2023/08/20 05:42:33;;;;;;;12.60;7.03;;;21.90;68.00;;;;;;4991428;28;20165;-52
2023/08/20 05:45:06;;;;;;;8.73;7.22;;;21.90;68.20;;;;;;4976253;28;20144;-49
2023/08/20 05:47:34;;;;;;;7.40;6.45;;;21.90;68.50;;;;;;5009435;28;20042;-52
2023/08/20 05:50:08;;;;;;;11.40;8.60;;;22.00;68.80;;;;;;4986739;28;20096;-50
2023/08/20 05:52:39;;;;;;;9.73;8.32;;;22.00;69.00;;;;;;4991383;28;20034;-51
2023/08/20 05:55:07;;;;;;;10.40;7.50;;;22.10;69.10;;;;;;4991381;28;20045;-52
2023/08/20 05:57:37;;;;;;;8.52;7.38;;;22.10;69.20;;;;;;5007964;28;20037;-52
2023/08/20 06:00:07;;;;;;;9.38;8.38;;;22.10;69.20;;;;;;4992226;28;20084;-50
2023/08/20 06:02:38;;;;;;;10.10;9.05;;;22.20;69.40;;;;;;5008825;28;20049;-50
2023/08/20 06:05:09;;;;;;;11.48;8.05;;;22.20;69.50;;;;;;4991936;28;20038;-51
2023/08/20 06:07:35;;;;;;;9.95;8.55;;;22.30;69.70;;;;;;5009355;28;20066;-51
2023/08/20 06:10:02;;;;;;;11.13;8.75;;;22.30;69.60;;;;;;5009328;28;20129;-50
2023/08/20 06:12:30;;;;;;;11.43;8.65;;;22.30;69.60;;;;;;5009677;28;20073;-51
2023/08/20 06:15:01;;;;;;;11.05;8.98;;;22.40;69.60;;;;;;5004750;28;20043;-51
2023/08/20 06:17:28;;;;;;;10.00;9.02;;;22.40;69.70;;;;;;5006831;28;20046;-51
2023/08/20 06:19:55;;;;;;;11.45;9.15;;;22.50;69.80;;;;;;5007749;28;20152;-51
2023/08/20 06:22:21;;;;;;;10.30;8.63;;;22.50;69.80;;;;;;5007754;28;20121;-50
2023/08/20 06:24:51;;;;;;;9.10;7.82;;;22.50;69.90;;;;;;5001124;28;20096;-51
2023/08/20 06:27:20;;;;;;;9.90;8.45;;;22.60;70.00;;;;;;5008789;28;20053;-51
2023/08/20 06:29:47;;;;;;;12.15;9.13;;;22.60;70.20;;;;;;5011121;28;20141;-49
2023/08/20 06:32:14;;;;;;;10.68;8.35;;;22.70;70.40;;;;;;5012313;28;20442;-50
2023/08/20 06:34:50;;;;;;;9.65;8.68;;;22.70;70.40;;;;;;5010195;28;20529;-50
2023/08/20 06:37:17;;;;;;;9.63;8.10;;;22.80;70.60;;;;;;5011655;28;20483;-51
2023/08/20 06:39:49;;;;;;;10.10;8.13;;;22.90;70.40;;;;;;5011972;28;20297;-51
2023/08/20 06:42:15;;;;;;;9.90;7.63;;;22.90;70.30;;;;;;5007181;28;20097;-50
2023/08/20 06:44:42;;;;;;;8.98;8.07;;;23.00;70.10;;;;;;5011353;28;20081;-50
2023/08/20 06:47:08;;;;;;;10.23;7.80;;;23.10;70.30;;;;;;5011658;28;20069;-51
2023/08/20 06:49:38;;;;;;;11.50;8.20;;;23.10;70.20;;;;;;5011645;28;20057;-51
2023/08/20 06:52:04;;;;;;;9.75;7.00;;;23.10;70.90;;;;;;5004831;28;20506;-52
2023/08/20 06:54:31;;;;;;;9.57;6.95;;;23.20;70.30;;;;;;4998600;28;20136;-50
2023/08/20 06:56:58;;;;;;;8.60;7.70;;;23.30;70.20;;;;;;5003478;28;20034;-51
2023/08/20 06:59:24;;;;;;;9.40;7.63;;;23.30;70.00;;;;;;5000431;28;20451;-51
2023/08/20 07:01:51;;;;;;;10.68;7.50;;;23.40;70.20;;;;;;5009135;28;20096;-52
2023/08/20 07:04:18;;;;;;;7.68;6.60;;;23.40;70.00;;;;;;5007219;28;20074;-53
2023/08/20 07:06:44;;;;;;;8.38;6.22;;;23.50;70.20;;;;;;5008860;28;20483;-53
2023/08/20 07:09:11;;;;;;;8.68;6.95;;;23.50;70.10;;;;;;5008597;28;20069;-49
2023/08/20 07:11:38;;;;;;;7.93;6.15;;;23.60;69.80;;;;;;5007207;28;20046;-52
2023/08/20 07:14:04;;;;;;;6.60;5.90;;;23.60;69.90;;;;;;5010814;28;20042;-53
2023/08/20 07:16:31;;;;;;;8.48;5.78;;;23.60;69.80;;;;;;5012354;28;20042;-52
2023/08/20 07:18:58;;;;;;;7.95;5.80;;;23.70;69.10;;;;;;4994170;28;20065;-52
2023/08/20 07:21:25;;;;;;;7.90;6.07;;;23.70;69.40;;;;;;5012929;28;20125;-53
2023/08/20 07:23:51;;;;;;;6.55;5.82;;;23.80;68.70;;;;;;5010880;28;20567;-52
2023/08/20 07:26:18;;;;;;;6.13;5.30;;;23.80;68.60;;;;;;5010852;28;20516;-53
2023/08/20 07:28:57;;;;;;;8.82;5.30;;;23.80;68.70;;;;;;5007011;28;20129;-51
2023/08/20 07:31:28;;;;;;;8.63;5.85;;;23.80;68.80;;;;;;5009267;28;20117;-52
2023/08/20 07:33:56;;;;;;;8.38;5.38;;;23.90;68.50;;;;;;5010161;28;20052;-52
2023/08/20 07:36:25;;;;;;;7.47;5.75;;;24.10;67.80;;;;;;5011589;28;20083;-52
2023/08/20 07:38:53;;;;;;;7.07;5.30;;;24.00;67.80;;;;;;4988002;28;20076;-48
2023/08/20 07:41:23;;;;;;;8.15;5.80;;;24.00;67.40;;;;;;5010660;28;20117;-52
2023/08/20 07:43:49;;;;;;;8.00;6.25;;;24.10;67.60;;;;;;5006808;28;20081;-52
2023/08/20 07:46:18;;;;;;;6.97;6.28;;;24.10;67.50;;;;;;4993553;28;20056;-52
2023/08/20 07:48:45;;;;;;;7.07;6.28;;;24.20;66.80;;;;;;5006379;28;20077;-48
2023/08/20 07:51:12;;;;;;;8.73;6.30;;;24.20;66.60;;;;;;5008308;28;20046;-53
2023/08/20 07:53:39;;;;;;;9.50;6.82;;;24.20;66.40;;;;;;5010354;28;20089;-53
2023/08/20 07:56:05;;;;;;;8.55;7.60;;;24.30;66.40;;;;;;5012283;28;20038;-53
2023/08/20 07:58:32;;;;;;;8.32;6.00;;;24.30;66.40;;;;;;5006729;28;20535;-53
2023/08/20 08:00:59;;;;;;;7.93;6.82;;;24.30;66.30;;;;;;5011391;28;20056;-52
2023/08/20 08:03:26;;;;;;;10.40;8.07;;;24.40;66.60;;;;;;5010252;28;20077;-50
2023/08/20 08:05:54;;;;;;;14.40;8.93;;;24.50;66.50;;;;;;5011806;28;20133;-54
2023/08/20 08:08:22;;;;;;;12.85;9.13;;;24.50;66.70;;;;;;5010401;28;20099;-52
2023/08/20 08:10:49;;;;;;;12.43;9.38;;;24.50;66.60;;;;;;4992907;28;20046;-54
2023/08/20 08:13:21;;;;;;;12.73;10.60;;;24.50;66.50;;;;;;5010531;28;20061;-54
2023/08/20 08:15:49;;;;;;;14.93;10.02;;;24.60;66.50;;;;;;5010001;28;20038;-53
2023/08/20 08:18:19;;;;;;;14.40;11.55;;;24.70;66.70;;;;;;5010434;28;20088;-49
2023/08/20 08:20:54;;;;;;;14.07;10.90;;;24.70;66.40;;;;;;5009871;28;20097;-53
2023/08/20 08:23:21;;;;;;;11.32;9.73;;;24.80;66.50;;;;;;5010301;28;20465;-50
2023/08/20 08:25:48;;;;;;;14.52;10.23;;;24.80;66.40;;;;;;5010783;28;20038;-53
2023/08/20 08:28:16;;;;;;;13.30;10.90;;;24.90;66.70;;;;;;5010819;28;20053;-50
2023/08/20 08:30:47;;;;;;;16.45;10.52;;;24.90;67.00;;;;;;5011005;28;20121;-52
2023/08/20 08:33:14;;;;;;;11.75;10.20;;;24.90;67.20;;;;;;5010587;28;20037;-53
2023/08/20 08:35:40;;;;;;;13.63;11.00;;;25.00;67.30;;;;;;5009378;28;20539;-49
2023/08/20 08:38:09;;;;;;;15.38;11.68;;;25.10;67.20;;;;;;4991253;28;20030;-52
2023/08/20 08:40:39;;;;;;;14.32;11.27;;;25.00;67.00;;;;;;5011545;28;20120;-52
2023/08/20 08:43:06;;;;;;;11.57;10.10;;;25.20;67.80;;;;;;5009889;28;20038;-51
2023/08/20 08:45:33;;;;;;;15.38;12.80;;;25.30;67.50;;;;;;5009946;28;20472;-48
2023/08/20 08:48:02;;;;;;;16.88;12.15;;;25.40;67.20;;;;;;5010078;28;20108;-51
2023/08/20 08:50:32;;;;;;;14.02;10.60;;;25.40;67.30;;;;;;5011230;28;20496;-52
2023/08/20 08:52:59;;;;;;;14.73;11.18;;;25.50;67.10;;;;;;4995229;28;20057;-51
2023/08/20 08:55:26;;;;;;;15.80;12.52;;;25.60;66.70;;;;;;5002857;28;20069;-50
2023/08/20 08:57:52;;;;;;;14.38;11.98;;;25.60;66.70;;;;;;5009298;28;20070;-50
2023/08/20 09:00:19;;;;;;;14.90;11.50;;;25.60;66.90;;;;;;5002675;28;20046;-50
2023/08/20 09:02:46;;;;;;;17.17;12.15;;;25.70;66.70;;;;;;5007321;28;20134;-51
2023/08/20 09:05:15;;;;;;;13.35;11.75;;;25.80;66.80;;;;;;5004675;28;20038;-49
2023/08/20 09:07:44;;;;;;;12.52;9.82;;;25.90;67.00;;;;;;5008945;28;20048;-47
2023/08/20 09:10:10;;;;;;;12.10;10.80;;;25.90;67.10;;;;;;5007173;28;20117;-51
2023/08/20 09:12:40;;;;;;;13.70;10.75;;;26.10;66.60;;;;;;5007093;28;20088;-51
2023/08/20 09:15:11;;;;;;;14.32;10.90;;;26.20;65.70;;;;;;5004062;28;20112;-48
2023/08/20 09:17:41;;;;;;;13.63;10.95;;;26.30;65.40;;;;;;5006777;28;20129;-51
2023/08/20 09:20:08;;;;;;;14.10;12.15;;;26.50;65.70;;;;;;5004444;28;20038;-51
2023/08/20 09:22:38;;;;;;;13.52;12.13;;;26.60;65.50;;;;;;5009105;28;20515;-48
2023/08/20 09:25:05;;;;;;;15.55;13.32;;;26.70;64.90;;;;;;5008423;28;20042;-47
2023/08/20 09:27:41;;;;;;;15.82;14.07;;;26.80;64.80;;;;;;5006629;28;20575;-50
2023/08/20 09:30:08;;;;;;;14.18;12.77;;;26.90;64.30;;;;;;5004821;28;20045;-51
2023/08/20 09:32:34;;;;;;;16.40;12.27;;;27.00;64.60;;;;;;5028421;23;20132;-50
2023/08/20 09:35:01;;;;;;;14.30;11.77;;;27.10;64.80;;;;;;5009793;28;20053;-52
2023/08/20 09:37:28;;;;;;;13.63;12.02;;;27.20;63.90;;;;;;5008737;28;20057;-48
2023/08/20 09:39:54;;;;;;;15.40;12.77;;;27.40;63.50;;;;;;5006126;28;20504;-50
2023/08/20 09:42:21;;;;;;;13.68;11.75;;;27.50;62.60;;;;;;5014399;28;20049;-48
2023/08/20 09:44:53;;;;;;;12.93;11.63;;;27.50;62.80;;;;;;5005180;28;20068;-48
2023/08/20 09:47:21;;;;;;;16.48;11.57;;;27.70;62.10;;;;;;5003039;28;20046;-48
2023/08/20 09:49:50;;;;;;;11.73;9.70;;;27.80;62.20;;;;;;5007786;28;20042;-51
2023/08/20 09:52:30;;;;;;;13.27;11.52;;;27.80;62.20;;;;;;5006012;28;20045;-48
2023/08/20 09:55:03;;;;;;;14.27;12.57;;;28.00;61.40;;;;;;5000665;28;20073;-50
2023/08/20 09:57:37;;;;;;;16.20;12.45;;;28.00;61.40;;;;;;5009009;28;20038;-48
2023/08/20 10:00:12;;;;;;;15.82;13.48;;;28.10;61.80;;;;;;5009187;28;20042;-46
2023/08/20 10:02:40;;;;;;;13.88;12.38;;;28.20;60.90;;;;;;5004976;28;20054;-46
2023/08/20 10:05:09;;;;;;;16.52;13.25;;;28.30;61.20;;;;;;5007416;28;20053;-48
2023/08/20 10:07:36;;;;;;;14.63;12.68;;;28.40;61.00;;;;;;5006305;28;20046;-49
2023/08/20 10:10:05;;;;;;;12.48;10.68;;;28.30;60.50;;;;;;5007438;28;20041;-50
2023/08/20 10:12:32;;;;;;;14.68;10.68;;;28.40;60.80;;;;;;5007812;28;20037;-52
2023/08/20 10:15:01;;;;;;;11.18;9.65;;;28.40;61.00;;;;;;5002573;28;20042;-52
2023/08/20 10:17:32;;;;;;;15.93;9.40;;;28.40;60.00;;;;;;5007476;28;20045;-51
2023/08/20 10:20:03;;;;;;;11.65;10.15;;;28.30;60.00;;;;;;5006605;28;20076;-50
2023/08/20 10:22:42;;;;;;;14.60;11.15;;;28.30;60.30;;;;;;5007254;28;20042;-49
2023/08/20 10:25:21;;;;;;;11.88;10.52;;;28.30;59.60;;;;;;5012430;28;20057;-47
2023/08/20 10:27:48;;;;;;;13.63;9.10;;;28.30;59.50;;;;;;5002227;28;20756;-51
2023/08/20 10:30:21;;;;;;;10.13;8.90;;;28.30;60.10;;;;;;5006387;28;20549;-49
2023/08/20 10:32:51;;;;;;;9.45;7.75;;;28.30;59.60;;;;;;5007054;28;20145;-51
2023/08/20 10:35:23;;;;;;;11.60;8.13;;;28.30;59.60;;;;;;5004786;28;20042;-48
2023/08/20 10:38:19;;;;;;;9.20;8.30;;;28.40;59.60;;;;;;5002261;28;20787;-52
2023/08/20 10:40:47;;;;;;;11.68;8.27;;;28.50;59.10;;;;;;4999368;28;20128;-48
2023/08/20 10:43:26;;;;;;;9.93;8.13;;;28.50;59.90;;;;;;5008107;28;20558;-51
2023/08/20 10:46:23;;;;;;;7.78;6.97;;;28.70;59.30;;;;;;5003336;28;20049;-50
2023/08/20 10:48:55;;;;;;;8.80;6.22;;;28.80;58.80;;;;;;4991755;28;20049;-51
2023/08/20 10:51:33;;;;;;;7.97;5.60;;;28.90;58.10;;;;;;5008107;28;20467;-52
2023/08/20 10:53:59;;;;;;;8.05;6.47;;;28.90;57.70;;;;;;5002229;28;20559;-47
2023/08/20 10:56:46;;;;;;;8.60;6.20;;;29.00;57.70;;;;;;5010035;28;20522;-50
2023/08/20 10:59:21;;;;;;;6.63;6.03;;;29.00;56.80;;;;;;4997314;28;20104;-50
2023/08/20 11:01:49;;;;;;;6.55;5.43;;;29.00;56.70;;;;;;5006923;28;20567;-49
2023/08/20 11:04:17;;;;;;;5.90;5.30;;;29.00;56.80;;;;;;5006729;28;20050;-51
2023/08/20 11:06:45;;;;;;;6.15;5.30;;;29.00;56.60;;;;;;5004237;28;20120;-52
2023/08/20 11:09:13;;;;;;;6.90;5.22;;;29.00;56.80;;;;;;5008224;28;20073;-50
2023/08/20 11:11:40;;;;;;;6.35;5.38;;;29.00;56.40;;;;;;5008624;28;20132;-50
2023/08/20 11:14:11;;;;;;;4.70;4.28;;;29.00;56.20;;;;;;5002775;28;20100;-51
2023/08/20 11:16:38;;;;;;;6.83;5.30;;;29.10;56.00;;;;;;5014491;28;20062;-51
2023/08/20 11:19:08;;;;;;;5.88;5.10;;;29.20;56.40;;;;;;5010271;28;20338;-51
2023/08/20 11:21:37;;;;;;;6.00;5.00;;;29.20;55.80;;;;;;5012939;28;20042;-48
2023/08/20 11:24:04;;;;;;;4.47;4.05;;;29.30;55.20;;;;;;5011172;28;20045;-51
2023/08/20 11:26:31;;;;;;;5.93;4.07;;;29.30;54.80;;;;;;5009266;28;20049;-52
2023/08/20 11:28:58;;;;;;;6.68;4.18;;;29.20;54.10;;;;;;5007448;28;20843;-47
2023/08/20 11:31:25;;;;;;;7.78;3.92;;;29.20;53.80;;;;;;5015033;28;20038;-48
2023/08/20 11:33:52;;;;;;;6.40;4.65;;;29.20;53.80;;;;;;5010910;28;20038;-50
2023/08/20 11:36:20;;;;;;;4.35;3.95;;;29.20;53.50;;;;;;5006885;28;20038;-49
2023/08/20 11:38:52;;;;;;;6.63;4.63;;;29.20;53.60;;;;;;5007166;28;20066;-51
2023/08/20 11:41:20;;;;;;;12.50;4.63;;;29.20;54.30;;;;;;5008486;28;20038;-52
2023/08/20 11:43:48;;;;;;;6.03;4.45;;;29.20;54.30;;;;;;5008178;28;20045;-51
2023/08/20 11:46:15;;;;;;;6.43;4.03;;;29.30;54.00;;;;;;5008749;28;20081;-49
2023/08/20 11:49:03;;;;;;;4.75;4.28;;;29.30;54.50;;;;;;5004928;28;20046;-47
2023/08/20 11:51:37;;;;;;;3.88;3.30;;;29.40;53.90;;;;;;5005849;28;20452;-49
2023/08/20 11:54:08;;;;;;;8.07;4.45;;;29.40;53.50;;;;;;5011153;28;20112;-52
2023/08/20 11:56:35;;;;;;;5.85;3.95;;;29.50;53.50;;;;;;5009094;28;20124;-50
2023/08/20 11:59:02;;;;;;;5.78;4.10;;;29.50;53.50;;;;;;5008584;28;20086;-50
2023/08/20 12:01:32;;;;;;;4.88;3.88;;;29.50;52.80;;;;;;5007464;28;20084;-47
2023/08/20 12:04:07;;;;;;;4.78;3.55;;;29.60;52.00;;;;;;5009154;28;20046;-51
2023/08/20 12:06:35;;;;;;;3.75;3.03;;;29.60;51.80;;;;;;5010762;28;20045;-52
2023/08/20 12:09:18;;;;;;;7.28;4.10;;;29.70;52.70;;;;;;5010219;28;20049;-48
2023/08/20 12:11:49;;;;;;;4.07;3.20;;;29.80;51.50;;;;;;5008535;28;20045;-50
2023/08/20 12:14:17;;;;;;;5.03;3.63;;;29.90;50.80;;;;;;5009278;28;20066;-50
2023/08/20 12:16:44;;;;;;;3.00;2.67;;;29.90;51.20;;;;;;5010380;28;20508;-49
2023/08/20 12:19:11;;;;;;;4.47;2.92;;;30.00;51.40;;;;;;5008695;28;20053;-51
2023/08/20 12:21:41;;;;;;;4.30;2.60;;;30.00;51.60;;;;;;5010936;28;20046;-48
2023/08/20 12:24:09;;;;;;;3.35;3.05;;;30.10;51.00;;;;;;5008587;28;20033;-51
2023/08/20 12:26:36;;;;;;;7.18;3.25;;;30.10;51.00;;;;;;5008286;28;20101;-48
2023/08/20 12:29:03;;;;;;;7.40;3.33;;;30.10;50.70;;;;;;5009311;28;20089;-51
2023/08/20 12:31:31;;;;;;;2.97;2.75;;;30.10;50.60;;;;;;5013332;28;20863;-49
2023/08/20 12:33:58;;;;;;;3.47;3.15;;;30.10;50.60;;;;;;5010407;28;20068;-52
2023/08/20 12:36:27;;;;;;;4.03;2.45;;;30.20;50.60;;;;;;5008349;28;20117;-48
2023/08/20 12:38:55;;;;;;;3.78;2.80;;;30.30;50.10;;;;;;5011700;28;20519;-49
2023/08/20 12:41:22;;;;;;;3.35;2.58;;;30.40;50.00;;;;;;4992350;28;20052;-51
2023/08/20 12:43:48;;;;;;;4.07;2.53;;;30.40;50.50;;;;;;5002461;28;20440;-53
2023/08/20 12:46:16;;;;;;;4.15;2.78;;;30.50;49.60;;;;;;5001588;28;20302;-49
2023/08/20 12:48:43;;;;;;;5.75;3.30;;;30.60;49.90;;;;;;5004228;28;20124;-52
2023/08/20 12:51:13;;;;;;;5.00;2.72;;;30.80;49.00;;;;;;5002005;28;20117;-52